Terminal Aerodrome Forecast
Issued by NWS

Home | Current Version | Previous Version | Text Only | Print | Product List | Glossary On
Versions: 1 2 3 4 5 6 7 8 9 10 11 12 13 14 15 16 17 18 19 20 21
376
FTUS43 KAPX 221010 AAB
TAFMBL
TAF AMD
KMBL 221010Z 2210/2306 00000KT 1/2SM FG OVC011
     FM221600 VRB03KT 3SM BR OVC008
     FM230000 00000KT 1SM BR OVC004=

USA.gov is the U.S. government's official web portal to all federal, state and local government web resources and services.